Estación Meteorológica Peña el Pijo (Robertgarden) [ 12/09/19 16:25:58 CET ]

Fecha Hora Presion(HPa) Temp (°C) Humedad % Rocio (°C) Viento ( m/s) Direccion Lluvia 1Hora(mm) Lluvia 24H(mm) LLuvia Total(mm)
2019-Sep-20 01:01:57 1010.900 14.3 86 12.0       0.51 486.11
2019-Sep-20 02:01:53 1010.900 13.9 87 11.8       0.51 486.11
2019-Sep-20 03:01:45 1010.500 14.1 88 12.1       0.51 486.11
2019-Sep-20 04:01:45 1010.300 14.4 89 12.6       0.51 486.11
2019-Sep-20 05:01:48 1010.000 14.8 89 13.0       0.51 486.11
2019-Sep-20 06:01:47 1009.900 14.6 89 12.8       0.51 486.11
2019-Sep-20 07:01:47 1009.800 13.9 90 12.3       0.51 486.11
2019-Sep-20 08:01:46 1009.600 13.6 90 12.0       0.51 486.11
2019-Sep-20 09:01:34 1010.000 14.4 91 13.0       0.51 486.11
2019-Sep-20 10:01:51 1010.000 16.8 90 15.2       0.51 486.11
2019-Sep-20 11:01:40 1010.300 19.3 81 16.0       0.51 486.11
2019-Sep-20 12:01:44 1010.000 22.3 69 16.3       0.51 486.11
2019-Sep-20 13:01:40 1009.600 23.9 61 15.9         486.11
2019-Sep-20 14:02:05 1009.400 25.5 53 15.2 2.4 W     486.11
2019-Sep-20 15:01:53 1009.100 24.3 56 14.9         486.11
2019-Sep-20 16:01:44 1008.500 24.3 57 15.2 0.4 W     486.11
2019-Sep-20 17:01:53 1008.300 23.9 56 14.6 1.4 NNW     486.11
2019-Sep-20 18:01:43 1008.300 22.1 63 14.7         486.11
2019-Sep-20 19:01:46 1008.100 20.7 68 14.6         486.11
2019-Sep-20 20:01:42 1008.400 19.5 73 14.5         486.11
2019-Sep-20 21:01:53 1008.100 17.5 81 14.2     0.51 0.51 486.63
2019-Sep-20 22:01:43 1008.100 16.7 85 14.2       0.51 486.63
2019-Sep-20 23:01:52 1009.100 16.1 85 13.6       0.51 486.63

Temperatura Máxima:25°    Temperatura Mínima:13°
Presión Máxima:1010.900 Hpa    Presión Mínima:1008.100 Hpa


Volver